Time;durP1;ratioP1;P1;durP2;ratioP2;P2;SDS_P1;SDS_P2;PMS_P1;PMS_P2;Temp;Humidity;BMP_temperature;BMP_pressure;BME280_temperature;BME280_humidity;BME280_pressure;Samples;Min_cycle;Max_cycle;Signal;HPM_P1;HPM_P2
2021/01/04 00:00:41;;;;;;;125.30;56.88;;;77.70;2227.20;;;;;;5053335;28;20039;-54
2021/01/04 00:03:18;;;;;;;100.57;49.28;;;102.40;2227.20;;;;;;5052502;28;20509;-53
2021/01/04 00:06:21;;;;;;;121.03;57.92;;;102.40;2227.20;;;;;;5049004;28;20048;-55
2021/01/04 00:09:20;;;;;;;126.40;61.30;;;102.40;2227.20;;;;;;5041077;28;20040;-55
2021/01/04 00:11:56;;;;;;;252.68;102.32;;;77.70;2227.20;;;;;;5054111;28;20032;-55
2021/01/04 00:14:30;;;;;;;120.78;59.80;;;77.70;2227.20;;;;;;5053497;28;20410;-56
2021/01/04 00:17:19;;;;;;;112.07;57.22;;;77.70;2227.20;;;;;;5053352;28;20033;-58
2021/01/04 00:20:20;;;;;;;114.10;55.50;;;77.60;2227.20;;;;;;5053486;28;20033;-59
2021/01/04 00:22:56;;;;;;;114.68;57.83;;;77.60;2227.20;;;;;;4957149;28;20501;-56
2021/01/04 00:25:43;;;;;;;158.20;80.95;;;77.60;2227.20;;;;;;4966753;28;20406;-58
2021/01/04 00:28:12;;;;;;;133.98;68.10;;;77.60;2227.20;;;;;;4972151;28;20047;-59
2021/01/04 00:30:46;;;;;;;132.05;68.78;;;77.60;2227.20;;;;;;4972382;28;20038;-57
2021/01/04 00:33:26;;;;;;;265.60;115.75;;;77.60;2227.20;;;;;;4972682;28;20027;-55
2021/01/04 00:35:58;;;;;;;161.20;80.57;;;77.60;2227.20;;;;;;4972761;28;20053;-57
2021/01/04 00:38:48;;;;;;;204.23;95.25;;;77.60;2227.20;;;;;;4965300;28;20070;-58
2021/01/04 00:41:58;;;;;;;175.55;85.85;;;77.60;2227.20;;;;;;4953556;29;20142;-57
2021/01/04 00:44:49;;;;;;;137.48;68.65;;;77.50;2227.20;;;;;;4895710;29;20052;-59
2021/01/04 00:47:37;;;;;;;136.10;66.03;;;77.50;2227.20;;;;;;4880031;29;20132;-60
2021/01/04 00:50:15;;;;;;;244.15;113.05;;;77.50;2227.20;;;;;;4881653;29;20041;-60
2021/01/04 00:53:18;;;;;;;221.05;106.43;;;77.50;2227.20;;;;;;4881742;29;20029;-60
2021/01/04 00:56:13;;;;;;;201.43;96.28;;;77.40;2227.20;;;;;;4864065;29;20069;-56
2021/01/04 00:59:03;;;;;;;179.63;88.07;;;77.50;2227.20;;;;;;4855162;29;20848;-58
2021/01/04 01:01:50;;;;;;;111.10;55.53;;;77.40;2227.20;;;;;;4844318;29;20042;-57
2021/01/04 01:04:23;;;;;;;113.95;55.92;;;77.40;2227.20;;;;;;4844457;29;20094;-57
2021/01/04 01:06:55;;;;;;;107.85;53.38;;;77.40;2227.20;;;;;;4844367;29;20528;-57
2021/01/04 01:09:21;;;;;;;114.40;58.95;;;77.40;2227.20;;;;;;4855674;29;20050;-57
2021/01/04 01:12:06;;;;;;;126.63;64.22;;;77.40;2227.20;;;;;;4849156;29;20042;-56
2021/01/04 01:15:02;;;;;;;172.18;80.28;;;77.30;2227.20;;;;;;4853421;29;20162;-57
2021/01/04 01:17:30;;;;;;;131.60;63.95;;;77.30;2227.20;;;;;;4870401;29;21162;-57
2021/01/04 01:19:58;;;;;;;208.07;94.85;;;77.20;2227.20;;;;;;4875234;29;20376;-57
2021/01/04 01:22:29;;;;;;;235.30;101.05;;;77.20;2227.20;;;;;;4884674;29;20033;-56
2021/01/04 01:24:58;;;;;;;245.45;101.75;;;77.20;2227.20;;;;;;4879492;29;20097;-57
2021/01/04 01:27:39;;;;;;;233.50;98.50;;;77.20;2227.20;;;;;;4879523;29;20036;-56
2021/01/04 01:30:10;;;;;;;162.98;72.50;;;77.20;2227.20;;;;;;4881087;29;20069;-58
2021/01/04 01:33:05;;;;;;;233.65;103.43;;;77.20;2227.20;;;;;;4931593;29;20124;-58
2021/01/04 01:35:37;;;;;;;273.50;115.95;;;77.20;2227.20;;;;;;4986919;28;20040;-58
2021/01/04 01:38:27;;;;;;;280.83;120.55;;;77.20;2227.20;;;;;;5045315;28;20052;-57
2021/01/04 01:41:18;;;;;;;192.98;85.68;;;77.20;2227.20;;;;;;5045679;28;20438;-58
2021/01/04 01:43:58;;;;;;;214.13;93.07;;;77.30;2227.20;;;;;;5044693;28;20032;-57
2021/01/04 01:46:39;;;;;;;214.45;94.00;;;77.30;2227.20;;;;;;5044785;28;20018;-58
2021/01/04 01:49:13;;;;;;;302.52;128.23;;;77.30;2227.20;;;;;;5045103;28;20030;-58
2021/01/04 01:52:01;;;;;;;128.55;62.28;;;77.30;2227.20;;;;;;5044323;28;20108;-57
2021/01/04 01:55:05;;;;;;;119.78;57.00;;;77.30;2227.20;;;;;;5026420;28;20378;-56
2021/01/04 01:57:31;;;;;;;;;;;77.20;2227.20;;;;;;5028933;28;20128;-57
2021/01/04 02:00:02;;;;;;;156.60;70.22;;;77.20;2227.20;;;;;;5043309;28;20409;-58
2021/01/04 02:03:06;;;;;;;140.30;65.90;;;77.20;2227.20;;;;;;5044215;28;20208;-57
2021/01/04 02:05:51;;;;;;;;;;;77.10;2227.20;;;;;;5046388;28;20108;-58
2021/01/04 02:08:20;;;;;;;113.68;54.25;;;77.10;2227.20;;;;;;5040347;28;19967;-57
2021/01/04 02:10:53;;;;;;;106.68;50.35;;;77.10;2227.20;;;;;;5044429;28;20063;-56
2021/01/04 02:13:43;;;;;;;209.55;71.53;;;77.10;2227.20;;;;;;5048015;28;20041;-56
2021/01/04 02:16:18;;;;;;;247.43;95.35;;;77.20;2227.20;;;;;;5055961;28;20466;-56
2021/01/04 02:18:55;;;;;;;251.73;95.10;;;77.20;2227.20;;;;;;5055816;28;20021;-56
2021/01/04 02:21:39;;;;;;;162.73;73.45;;;77.20;2227.20;;;;;;5055848;28;20094;-57
2021/01/04 02:24:12;;;;;;;93.93;45.92;;;77.20;2227.20;;;;;;5055982;28;20075;-56
2021/01/04 02:26:42;;;;;;;109.00;51.50;;;77.10;2227.20;;;;;;5055913;28;20036;-56
2021/01/04 02:29:12;;;;;;;113.53;53.53;;;77.10;2227.20;;;;;;5045860;28;20036;-56
2021/01/04 02:31:42;;;;;;;100.32;49.80;;;77.10;2227.20;;;;;;5044135;28;20049;-56
2021/01/04 02:34:11;;;;;;;104.22;48.92;;;77.10;2227.20;;;;;;5045703;28;20021;-56
2021/01/04 02:36:43;;;;;;;90.95;45.35;;;77.10;2227.20;;;;;;5044814;28;20072;-57
2021/01/04 02:39:39;;;;;;;76.20;38.17;;;77.00;2227.20;;;;;;5043355;28;20048;-58
2021/01/04 02:42:07;;;;;;;56.40;31.98;;;77.10;2227.20;;;;;;5044229;28;20047;-56
2021/01/04 02:44:34;;;;;;;98.78;43.17;;;77.10;2227.20;;;;;;5043750;28;20043;-58
2021/01/04 02:47:38;;;;;;;70.60;35.70;;;77.10;2227.20;;;;;;5043972;28;20508;-58
2021/01/04 02:50:25;;;;;;;49.38;27.77;;;77.10;2227.20;;;;;;5045386;28;20025;-57
2021/01/04 02:53:34;;;;;;;70.20;38.30;;;77.00;2227.20;;;;;;5043441;28;20421;-57
2021/01/04 02:56:09;;;;;;;60.75;34.88;;;77.00;2227.20;;;;;;5044691;28;20047;-58
2021/01/04 02:59:02;;;;;;;48.55;28.70;;;77.00;2227.20;;;;;;5043778;28;20025;-58
2021/01/04 03:01:46;;;;;;;62.47;36.72;;;77.00;2227.20;;;;;;5044926;28;20083;-58
2021/01/04 03:04:14;;;;;;;56.95;34.17;;;77.00;2227.20;;;;;;5043515;28;20053;-57
2021/01/04 03:07:00;;;;;;;58.55;35.58;;;76.90;2227.20;;;;;;5043315;28;20529;-57
2021/01/04 03:09:28;;;;;;;61.25;35.78;;;77.00;2227.20;;;;;;5044535;28;20021;-56
2021/01/04 03:11:56;;;;;;;65.90;38.33;;;77.00;2227.20;;;;;;5043630;28;20021;-57
2021/01/04 03:14:40;;;;;;;75.75;42.15;;;77.00;2227.20;;;;;;5042962;28;20124;-56
2021/01/04 03:17:07;;;;;;;;;;;77.00;2227.20;;;;;;5045154;28;20532;-58
2021/01/04 03:19:38;;;;;;;112.25;59.67;;;77.00;2227.20;;;;;;5043066;28;20392;-56
2021/01/04 03:22:06;;;;;;;120.30;62.28;;;77.00;2227.20;;;;;;5042610;28;20017;-56
2021/01/04 03:24:33;;;;;;;108.57;58.80;;;77.00;2227.20;;;;;;5043220;28;20022;-56
2021/01/04 03:27:12;;;;;;;98.45;53.50;;;77.00;2227.20;;;;;;5043578;28;20021;-56
2021/01/04 03:29:38;;;;;;;80.90;46.28;;;77.00;2227.20;;;;;;5043715;28;20374;-56
2021/01/04 03:32:04;;;;;;;45.95;28.38;;;77.00;2227.20;;;;;;5042624;28;20024;-56
2021/01/04 03:34:30;;;;;;;55.53;32.47;;;76.90;2227.20;;;;;;5042582;28;20029;-57
2021/01/04 03:36:56;;;;;;;46.50;26.73;;;76.80;2227.20;;;;;;5043461;28;20025;-57
2021/01/04 03:39:28;;;;;;;44.53;26.25;;;52.10;2227.20;;;;;;5042216;28;20114;-57
2021/01/04 03:41:58;;;;;;;45.20;27.05;;;52.10;2227.20;;;;;;5043593;28;20094;-56
2021/01/04 03:44:26;;;;;;;47.00;27.50;;;52.10;2227.20;;;;;;5042092;28;20025;-56
2021/01/04 03:46:52;;;;;;;46.13;27.67;;;52.10;2227.20;;;;;;5041593;28;20040;-56
2021/01/04 03:49:18;;;;;;;44.35;27.90;;;52.10;2227.20;;;;;;5043506;28;20116;-56
2021/01/04 03:51:54;;;;;;;45.15;27.77;;;52.10;2227.20;;;;;;5048621;28;20096;-56
2021/01/04 03:54:20;;;;;;;44.25;27.27;;;76.80;2227.20;;;;;;5042847;28;20574;-56
2021/01/04 03:56:46;;;;;;;42.35;26.10;;;76.80;2227.20;;;;;;5043453;28;20049;-57
2021/01/04 03:59:13;;;;;;;47.60;28.58;;;76.80;2227.20;;;;;;5041477;28;20132;-57
2021/01/04 04:01:39;;;;;;;46.38;28.08;;;76.80;2227.20;;;;;;5042868;28;20450;-56
2021/01/04 04:04:05;;;;;;;39.75;24.40;;;76.80;2227.20;;;;;;5043514;28;20129;-56
2021/01/04 04:06:30;;;;;;;37.78;23.60;;;52.00;2227.20;;;;;;5041485;28;20040;-56
2021/01/04 04:08:56;;;;;;;36.78;22.90;;;52.00;2227.20;;;;;;5043139;28;20025;-56
2021/01/04 04:11:22;;;;;;;41.70;25.20;;;52.00;2227.20;;;;;;5043968;28;20067;-57
2021/01/04 04:13:47;;;;;;;37.65;23.80;;;52.10;2227.20;;;;;;5042077;28;20529;-57
2021/01/04 04:16:14;;;;;;;39.03;24.63;;;52.10;2227.20;;;;;;5041876;28;20025;-56
2021/01/04 04:18:40;;;;;;;53.10;30.17;;;52.10;2227.20;;;;;;5041683;28;20056;-57
2021/01/04 04:21:06;;;;;;;50.13;27.02;;;52.10;2227.20;;;;;;5041921;28;20061;-57
2021/01/04 04:23:31;;;;;;;63.03;34.75;;;52.10;2227.20;;;;;;5042829;28;20079;-56
2021/01/04 04:25:57;;;;;;;59.33;33.05;;;52.10;2227.20;;;;;;5041122;28;20106;-56
2021/01/04 04:28:23;;;;;;;53.00;30.55;;;76.80;2227.20;;;;;;5043145;28;20032;-56
2021/01/04 04:30:49;;;;;;;60.85;36.10;;;76.80;2227.20;;;;;;5045990;28;20056;-57
2021/01/04 04:33:14;;;;;;;57.45;34.95;;;76.80;2227.20;;;;;;5046273;28;20075;-56
2021/01/04 04:35:40;;;;;;;58.28;35.00;;;76.90;2227.20;;;;;;5043936;28;20549;-57
2021/01/04 04:38:06;;;;;;;77.85;46.38;;;76.90;2227.20;;;;;;5042434;28;20029;-57
2021/01/04 04:40:34;;;;;;;71.80;42.25;;;76.90;2227.20;;;;;;5042824;28;20025;-61
2021/01/04 04:43:40;;;;;;;54.13;32.33;;;77.00;2227.20;;;;;;5040988;28;20029;-57
2021/01/04 04:46:24;;;;;;;85.03;47.60;;;77.00;2227.20;;;;;;5041631;28;20050;-56
2021/01/04 04:48:57;;;;;;;85.78;49.38;;;77.00;2227.20;;;;;;5041190;28;20037;-56
2021/01/04 04:52:03;;;;;;;93.65;53.47;;;77.00;2227.20;;;;;;5043981;28;20036;-58
2021/01/04 04:54:59;;;;;;;80.05;44.53;;;77.00;2227.20;;;;;;4950163;28;20031;-57
2021/01/04 04:57:58;;;;;;;58.92;34.35;;;77.00;2227.20;;;;;;4952686;29;20126;-56
2021/01/04 05:00:51;;;;;;;68.85;36.40;;;76.90;2227.20;;;;;;4952745;29;20047;-57
2021/01/04 05:03:59;;;;;;;70.10;39.95;;;76.90;2227.20;;;;;;4951288;29;20051;-56
2021/01/04 05:06:46;;;;;;;54.78;32.92;;;76.90;2227.20;;;;;;4952202;29;20042;-56
2021/01/04 05:09:17;;;;;;;57.63;32.67;;;76.90;2227.20;;;;;;4952975;29;20425;-56
2021/01/04 05:11:47;;;;;;;99.97;50.13;;;77.00;2227.20;;;;;;4953249;29;20034;-56
2021/01/04 05:14:19;;;;;;;69.25;38.70;;;76.90;2227.20;;;;;;4952865;29;20061;-56
2021/01/04 05:17:21;;;;;;;55.00;33.00;;;76.90;2227.20;;;;;;4953229;29;20020;-57
2021/01/04 05:20:02;;;;;;;50.72;30.65;;;76.90;2227.20;;;;;;4951667;28;20043;-57
2021/01/04 05:22:55;;;;;;;54.78;31.45;;;76.90;2227.20;;;;;;4952150;28;20043;-57
2021/01/04 05:25:35;;;;;;;53.45;30.27;;;76.90;2227.20;;;;;;4933829;29;20032;-58
2021/01/04 05:28:13;;;;;;;53.47;29.77;;;76.90;2227.20;;;;;;4935822;29;20036;-56
2021/01/04 05:31:27;;;;;;;55.17;29.77;;;76.90;2227.20;;;;;;4994948;28;20037;-56
2021/01/04 05:34:10;;;;;;;53.03;30.45;;;76.90;2227.20;;;;;;4955003;28;20027;-56
2021/01/04 05:36:35;;;;;;;52.60;29.38;;;76.90;2227.20;;;;;;4953570;29;20027;-57
2021/01/04 05:39:27;;;;;;;56.47;31.70;;;76.90;2227.20;;;;;;4955307;29;20110;-56
2021/01/04 05:42:25;;;;;;;74.03;40.42;;;77.00;2227.20;;;;;;4959223;28;20026;-58
2021/01/04 05:45:04;;;;;;;70.75;38.35;;;77.00;2227.20;;;;;;4960897;28;20086;-57
2021/01/04 05:47:43;;;;;;;63.20;36.13;;;77.00;2227.20;;;;;;4958465;28;20019;-57
2021/01/04 05:50:13;;;;;;;64.88;37.72;;;77.00;2227.20;;;;;;4955369;29;20035;-57
2021/01/04 05:52:39;;;;;;;69.03;39.95;;;77.00;2227.20;;;;;;4955756;29;20065;-58
2021/01/04 05:55:06;;;;;;;83.15;49.63;;;77.00;2227.20;;;;;;4955034;29;20031;-57
2021/01/04 05:57:31;;;;;;;152.82;83.15;;;77.00;2227.20;;;;;;4954645;29;20083;-57
2021/01/04 05:59:58;;;;;;;126.25;71.32;;;77.00;2227.20;;;;;;4952523;29;20078;-57
2021/01/04 06:02:24;;;;;;;111.45;60.22;;;77.10;2227.20;;;;;;4954947;29;20098;-57
2021/01/04 06:04:50;;;;;;;101.63;56.13;;;77.10;2227.20;;;;;;4958305;28;20114;-56
2021/01/04 06:07:16;;;;;;;99.47;54.55;;;77.10;2227.20;;;;;;4962834;28;20114;-57
2021/01/04 06:09:52;;;;;;;80.57;46.17;;;77.10;2227.20;;;;;;4993773;28;20390;-57
2021/01/04 06:12:33;;;;;;;71.38;39.25;;;77.10;2227.20;;;;;;5044302;28;20109;-57
2021/01/04 06:14:59;;;;;;;63.92;35.63;;;77.10;2227.20;;;;;;5044014;28;20061;-57
2021/01/04 06:17:38;;;;;;;58.72;33.85;;;77.10;2227.20;;;;;;5045120;28;20477;-57
2021/01/04 06:20:47;;;;;;;73.45;39.13;;;77.10;2227.20;;;;;;5044646;28;20474;-58
2021/01/04 06:23:29;;;;;;;63.60;33.90;;;77.00;2227.20;;;;;;4982525;28;20038;-58
2021/01/04 06:26:01;;;;;;;79.50;44.28;;;76.90;2227.20;;;;;;4991527;28;20049;-57
2021/01/04 06:28:27;;;;;;;74.15;41.63;;;77.00;2227.20;;;;;;4994378;28;20062;-57
2021/01/04 06:31:07;;;;;;;59.35;33.58;;;77.00;2227.20;;;;;;4993278;28;20531;-57
2021/01/04 06:33:33;;;;;;;71.45;38.55;;;77.00;2227.20;;;;;;4994246;28;20022;-57
2021/01/04 06:36:04;;;;;;;68.00;37.78;;;77.10;2227.20;;;;;;4994267;28;20026;-56
2021/01/04 06:38:33;;;;;;;67.25;38.47;;;77.10;2227.20;;;;;;4994099;28;20080;-57
2021/01/04 06:41:17;;;;;;;69.63;38.30;;;77.10;2227.20;;;;;;4994267;28;20053;-57
2021/01/04 06:43:43;;;;;;;66.97;37.30;;;77.20;2227.20;;;;;;4993551;28;20029;-57
2021/01/04 06:46:26;;;;;;;66.97;35.80;;;77.20;2227.20;;;;;;4993700;28;20046;-56
2021/01/04 06:48:57;;;;;;;83.95;47.35;;;77.20;2227.20;;;;;;4994053;28;20096;-57
2021/01/04 06:51:41;;;;;;;84.90;50.78;;;77.20;2227.20;;;;;;4993557;28;20018;-57
2021/01/04 06:54:19;;;;;;;70.38;41.10;;;77.30;2227.20;;;;;;4993161;28;20515;-57
2021/01/04 06:57:08;;;;;;;70.40;36.97;;;77.20;2227.20;;;;;;4987076;28;20022;-57
2021/01/04 06:59:55;;;;;;;66.30;36.65;;;77.30;2227.20;;;;;;4994946;28;20038;-57
2021/01/04 07:02:59;;;;;;;68.47;36.05;;;77.40;2227.20;;;;;;5047272;28;20036;-56
2021/01/04 07:05:33;;;;;;;62.13;33.88;;;77.40;2227.20;;;;;;5035586;28;20022;-57
2021/01/04 07:08:08;;;;;;;61.08;34.67;;;77.50;2227.20;;;;;;5046131;28;20051;-57
2021/01/04 07:10:46;;;;;;;83.63;48.28;;;77.60;2227.20;;;;;;5055096;28;20529;-57
2021/01/04 07:13:39;;;;;;;109.30;58.38;;;102.40;2227.20;;;;;;5056431;28;20036;-57
2021/01/04 07:16:11;;;;;;;119.95;59.55;;;102.40;2227.20;;;;;;5054825;28;20036;-57
2021/01/04 07:18:55;;;;;;;122.57;56.60;;;102.60;2227.20;;;;;;5054864;28;20434;-56
2021/01/04 07:21:47;;;;;;;126.70;66.70;;;102.80;2227.20;;;;;;5054764;28;20154;-57
2021/01/04 07:24:27;;;;;;;179.68;91.78;;;102.80;2227.20;;;;;;5012694;28;20026;-56
2021/01/04 07:27:05;;;;;;;160.75;86.70;;;103.00;2227.20;;;;;;5012815;28;20041;-57
2021/01/04 07:29:50;;;;;;;165.40;82.68;;;103.10;2227.20;;;;;;5012945;28;20141;-57
2021/01/04 07:32:24;;;;;;;140.23;72.88;;;128.00;2252.80;;;;;;5012814;28;20395;-57
2021/01/04 07:35:01;;;;;;;163.65;89.35;;;128.10;2252.80;;;;;;5012603;28;20041;-56
2021/01/04 07:37:44;;;;;;;172.82;74.80;;;128.20;2252.80;;;;;;5012916;28;20141;-57
2021/01/04 07:40:42;;;;;;;155.43;66.78;;;128.40;2252.80;;;;;;5012477;28;20030;-57
2021/01/04 07:43:13;;;;;;;163.45;67.00;;;128.70;2252.80;;;;;;5012768;28;20029;-57
2021/01/04 07:46:06;;;;;;;132.43;56.92;;;128.90;2252.80;;;;;;5012462;28;20026;-57
2021/01/04 07:48:57;;;;;;;110.28;49.97;;;153.80;2252.80;;;;;;5012485;28;20029;-56
2021/01/04 07:51:40;;;;;;;165.48;64.03;;;154.10;2252.80;;;;;;4992876;28;20487;-57
2021/01/04 07:54:12;;;;;;;181.35;73.25;;;154.50;2201.60;;;;;;4992566;28;20042;-57
2021/01/04 07:57:03;;;;;;;154.63;73.10;;;179.80;2124.80;;;;;;4986220;28;20034;-57
2021/01/04 07:59:40;;;;;;;99.25;51.30;;;205.60;1971.20;;;;;;4989895;28;20045;-56
2021/01/04 08:02:39;;;;;;;59.63;32.88;;;256.00;1817.60;;;;;;4988588;28;20039;-59
2021/01/04 08:05:32;;;;;;;55.50;33.97;;;282.00;1638.40;;;;;;4988679;28;20026;-56
2021/01/04 08:08:16;;;;;;;55.38;37.05;;;307.70;1561.60;;;;;;4993355;28;20022;-57
2021/01/04 08:10:56;;;;;;;61.80;40.13;;;308.00;1510.40;;;;;;4988143;28;20022;-58
2021/01/04 08:13:55;;;;;;;49.35;32.80;;;307.20;1561.60;;;;;;4990488;28;20416;-56
2021/01/04 08:16:29;;;;;;;56.13;36.63;;;281.70;1638.40;;;;;;4979856;28;20602;-56
2021/01/04 08:18:58;;;;;;;64.80;39.72;;;256.20;1689.60;;;;;;4979845;28;20123;-55
2021/01/04 08:21:51;;;;;;;57.60;38.15;;;231.20;1766.40;;;;;;4980056;28;20116;-55
2021/01/04 08:24:36;;;;;;;56.75;36.17;;;230.80;1817.60;;;;;;4982014;28;20522;-55
2021/01/04 08:27:33;;;;;;;66.22;39.35;;;230.60;1843.20;;;;;;4972938;28;20038;-55
2021/01/04 08:30:27;;;;;;;79.88;47.42;;;230.40;1894.40;;;;;;5033556;28;20026;-57
2021/01/04 08:33:19;;;;;;;113.60;60.72;;;205.70;1894.40;;;;;;5033486;28;20026;-56
2021/01/04 08:35:46;;;;;;;157.77;88.35;;;230.70;1843.20;;;;;;5033839;28;20040;-55
2021/01/04 08:38:23;;;;;;;107.95;67.38;;;256.10;1766.40;;;;;;5033570;28;20379;-57
2021/01/04 08:41:23;;;;;;;69.72;44.38;;;281.80;1664.00;;;;;;5033750;28;20391;-55
2021/01/04 08:43:52;;;;;;;70.85;43.03;;;308.00;1536.00;;;;;;4992258;28;20515;-56
2021/01/04 08:46:23;;;;;;;57.40;35.20;;;358.70;1408.00;;;;;;4995374;28;20073;-56
2021/01/04 08:48:51;;;;;;;63.40;40.28;;;384.90;1228.80;;;;;;4992712;28;20035;-55
2021/01/04 08:51:36;;;;;;;111.50;82.60;;;435.50;1152.00;;;;;;4994567;28;20050;-55
2021/01/04 08:54:16;;;;;;;41.97;32.17;;;486.50;998.40;;;;;;4992023;28;20031;-55
2021/01/04 08:56:48;;;;;;;41.47;31.73;;;512.60;896.00;;;;;;5010733;28;20144;-55
2021/01/04 08:59:21;;;;;;;46.92;37.60;;;563.40;819.20;;;;;;5011647;28;20038;-57
2021/01/04 09:01:59;;;;;;;139.98;113.05;;;564.00;793.60;;;;;;4997956;28;20072;-59
2021/01/04 09:04:35;;;;;;;84.70;73.32;;;589.10;742.40;;;;;;5001297;28;20046;-59
2021/01/04 09:07:04;;;;;;;74.63;62.15;;;564.00;793.60;;;;;;5001445;28;20184;-59
2021/01/04 09:09:41;;;;;;;61.58;43.15;;;537.90;870.40;;;;;;5003542;28;20022;-58
2021/01/04 09:12:28;;;;;;;54.88;39.88;;;512.70;870.40;;;;;;5004971;28;20099;-61
2021/01/04 09:15:02;;;;;;;50.05;38.30;;;538.40;844.80;;;;;;5004225;28;20478;-61
2021/01/04 09:17:45;;;;;;;52.03;40.22;;;588.80;768.00;;;;;;5004704;28;20027;-60
2021/01/04 09:20:30;;;;;;;42.58;35.25;;;564.00;793.60;;;;;;5016164;28;20045;-60
2021/01/04 09:23:23;;;;;;;40.85;34.25;;;589.20;768.00;;;;;;5049009;28;20045;-61
2021/01/04 09:25:51;;;;;;;38.55;30.80;;;589.60;742.40;;;;;;5039186;28;20029;-60
2021/01/04 09:28:21;;;;;;;40.88;30.42;;;589.20;768.00;;;;;;5042878;28;20535;-60
2021/01/04 09:30:47;;;;;;;44.20;32.67;;;589.70;742.40;;;;;;5042040;28;20487;-65
2021/01/04 09:33:18;;;;;;;27.83;22.65;;;640.00;691.20;;;;;;5046255;28;20037;-62
2021/01/04 09:35:44;;;;;;;25.15;21.60;;;665.60;665.60;;;;;;5044927;28;20423;-63
2021/01/04 09:38:24;;;;;;;18.60;16.60;;;665.90;665.60;;;;;;5045363;28;20424;-68
2021/01/04 09:40:53;;;;;;;19.38;16.55;;;666.30;640.00;;;;;;5045966;28;20095;-64
2021/01/04 09:43:25;;;;;;;17.52;15.25;;;691.20;614.40;;;;;;5044319;28;20021;-62
2021/01/04 09:45:53;;;;;;;16.80;15.00;;;716.80;588.80;;;;;;5045090;28;20125;-61
2021/01/04 09:48:48;;;;;;;20.02;16.48;;;717.30;563.20;;;;;;5045482;28;20074;-65
2021/01/04 09:51:22;;;;;;;19.42;16.60;;;717.60;537.60;;;;;;4990272;28;20121;-62
2021/01/04 09:53:57;;;;;;;19.88;17.08;;;717.30;563.20;;;;;;5005696;28;20033;-63
2021/01/04 09:56:29;;;;;;;24.95;19.42;;;692.10;563.20;;;;;;4999024;28;20038;-62
2021/01/04 09:59:06;;;;;;;22.52;17.67;;;691.60;588.80;;;;;;5001783;28;20038;-65
2021/01/04 10:01:41;;;;;;;17.75;15.85;;;666.50;614.40;;;;;;5002548;28;20090;-61
2021/01/04 10:04:07;;;;;;;17.55;14.98;;;640.30;691.20;;;;;;5000886;28;20026;-65
2021/01/04 10:06:35;;;;;;;18.70;15.13;;;615.30;716.80;;;;;;5000992;28;20121;-61
2021/01/04 10:09:05;;;;;;;23.05;19.13;;;614.40;742.40;;;;;;5001454;28;20044;-62
2021/01/04 10:11:31;;;;;;;23.88;19.35;;;564.10;819.20;;;;;;5000324;28;20026;-63
2021/01/04 10:14:11;;;;;;;25.73;20.60;;;563.50;844.80;;;;;;5002605;28;20426;-61
2021/01/04 10:16:39;;;;;;;21.33;16.40;;;538.00;921.60;;;;;;5003583;28;20092;-60
2021/01/04 10:19:08;;;;;;;21.80;16.88;;;537.60;947.20;;;;;;5001915;28;20423;-60
2021/01/04 10:21:55;;;;;;;21.30;15.50;;;512.70;947.20;;;;;;5001519;28;20450;-66
2021/01/04 10:24:27;;;;;;;28.58;21.65;;;512.30;972.80;;;;;;5002370;28;20032;-61
2021/01/04 10:26:53;;;;;;;37.72;29.10;;;486.90;1049.60;;;;;;5001890;28;20030;-60
2021/01/04 10:29:27;;;;;;;58.47;38.15;;;486.50;1075.20;;;;;;5039513;28;20029;-63
2021/01/04 10:32:05;;;;;;;56.80;39.63;;;512.00;998.40;;;;;;5041675;28;20025;-62
2021/01/04 10:34:39;;;;;;;67.30;46.22;;;486.70;1075.20;;;;;;5042877;28;20097;-61
2021/01/04 10:37:14;;;;;;;58.58;41.90;;;487.00;1049.60;;;;;;5043366;28;20025;-61
2021/01/04 10:39:40;;;;;;;55.58;36.33;;;486.90;1049.60;;;;;;5043844;28;20438;-60
2021/01/04 10:42:22;;;;;;;63.80;42.20;;;486.90;1049.60;;;;;;5045953;28;20013;-63
2021/01/04 10:44:50;;;;;;;50.38;33.70;;;487.20;1024.00;;;;;;5042923;28;20104;-60
2021/01/04 10:47:22;;;;;;;54.38;38.17;;;512.00;1024.00;;;;;;5041880;28;20033;-61
2021/01/04 10:49:48;;;;;;;70.40;44.42;;;537.70;972.80;;;;;;5041990;28;20033;-62
2021/01/04 10:52:22;;;;;;;75.70;47.65;;;538.40;921.60;;;;;;5042978;28;20660;-62
2021/01/04 10:54:48;;;;;;;69.15;44.05;;;563.60;896.00;;;;;;5043798;28;20018;-63
2021/01/04 10:57:38;;;;;;;106.03;58.85;;;564.10;870.40;;;;;;5042510;28;20504;-61
2021/01/04 11:00:13;;;;;;;57.97;40.83;;;563.80;870.40;;;;;;5041523;28;20032;-63
2021/01/04 11:02:50;;;;;;;44.03;31.70;;;589.10;819.20;;;;;;5034713;28;20034;-65
2021/01/04 11:05:32;;;;;;;125.53;67.40;;;589.50;793.60;;;;;;5034733;28;20032;-63
2021/01/04 11:08:17;;;;;;;100.28;55.08;;;640.00;742.40;;;;;;5034683;28;20029;-62
2021/01/04 11:10:57;;;;;;;;;;;640.80;665.60;;;;;;5035036;28;20079;-63
2021/01/04 11:13:29;;;;;;;64.30;42.25;;;640.40;691.20;;;;;;5034335;28;19909;-65
2021/01/04 11:16:11;;;;;;;132.20;80.75;;;614.90;742.40;;;;;;5034524;28;20541;-62
2021/01/04 11:18:51;;;;;;;51.65;36.63;;;615.20;742.40;;;;;;5034251;28;20030;-64
2021/01/04 11:21:19;;;;;;;41.08;32.13;;;615.10;742.40;;;;;;5034348;28;20510;-64
2021/01/04 11:23:45;;;;;;;44.35;32.50;;;614.60;742.40;;;;;;5034445;28;20525;-64
2021/01/04 11:26:11;;;;;;;42.47;32.67;;;564.10;819.20;;;;;;5034320;28;20030;-65
2021/01/04 11:28:37;;;;;;;45.60;34.20;;;563.30;896.00;;;;;;5034596;28;20611;-64
2021/01/04 11:31:04;;;;;;;47.30;36.08;;;563.40;896.00;;;;;;5034062;28;20026;-63
2021/01/04 11:33:29;;;;;;;47.42;35.75;;;563.50;896.00;;;;;;5016093;28;20025;-65
2021/01/04 11:35:56;;;;;;;43.25;31.92;;;589.40;819.20;;;;;;5034467;28;20503;-65
2021/01/04 11:38:23;;;;;;;78.47;58.30;;;615.30;742.40;;;;;;5016278;28;20026;-64
2021/01/04 11:40:49;;;;;;;43.55;32.83;;;665.90;691.20;;;;;;5034108;28;20487;-65
2021/01/04 11:43:15;;;;;;;23.33;18.60;;;692.10;588.80;;;;;;5033925;28;20025;-65
2021/01/04 11:45:40;;;;;;;22.27;17.80;;;717.20;588.80;;;;;;5034016;28;20078;-67
2021/01/04 11:48:07;;;;;;;22.77;18.10;;;742.50;588.80;;;;;;5034156;28;20100;-65
2021/01/04 11:50:33;;;;;;;20.63;15.82;;;742.70;563.20;;;;;;5034223;28;20033;-66
2021/01/04 11:52:59;;;;;;;23.42;18.65;;;742.40;563.20;;;;;;5034441;28;20111;-66
2021/01/04 11:55:25;;;;;;;34.45;26.00;;;716.80;588.80;;;;;;5034332;28;20033;-67
2021/01/04 11:57:51;;;;;;;29.33;22.67;;;742.50;563.20;;;;;;5033853;28;20021;-66
2021/01/04 12:00:18;;;;;;;26.33;21.02;;;768.80;460.80;;;;;;5034436;28;20033;-66
2021/01/04 12:02:44;;;;;;;31.38;24.98;;;793.90;460.80;;;;;;5034223;28;20021;-66
2021/01/04 12:05:13;;;;;;;29.60;23.98;;;819.50;409.60;;;;;;5034331;28;20462;-66
2021/01/04 12:07:39;;;;;;;35.05;28.83;;;845.10;384.00;;;;;;5034070;28;20028;-66
2021/01/04 12:10:06;;;;;;;34.90;29.30;;;870.70;332.80;;;;;;5034395;28;20029;-66
2021/01/04 12:12:31;;;;;;;32.33;26.98;;;870.80;307.20;;;;;;5034240;28;20025;-66
2021/01/04 12:14:57;;;;;;;38.40;30.67;;;870.50;332.80;;;;;;5034046;28;20059;-67
2021/01/04 12:17:23;;;;;;;39.17;32.08;;;896.00;307.20;;;;;;5033888;28;20136;-66
2021/01/04 12:19:49;;;;;;;28.33;22.40;;;896.00;307.20;;;;;;5033933;28;20037;-67
2021/01/04 12:22:16;;;;;;;19.17;15.80;;;896.90;256.00;;;;;;5034230;28;20051;-66
2021/01/04 12:24:45;;;;;;;16.17;12.05;;;896.90;256.00;;;;;;5016221;28;20036;-65
2021/01/04 12:27:12;;;;;;;23.67;17.25;;;845.40;332.80;;;;;;5033877;28;20021;-66
2021/01/04 12:29:49;;;;;;;17.60;15.65;;;819.50;384.00;;;;;;5033894;28;20041;-66
2021/01/04 12:32:17;;;;;;;43.97;32.38;;;793.90;435.20;;;;;;5033533;28;20025;-64
2021/01/04 12:34:44;;;;;;;29.50;24.20;;;742.60;512.00;;;;;;5033692;28;20482;-65
2021/01/04 12:37:10;;;;;;;18.08;13.70;;;691.50;563.20;;;;;;5033852;28;20033;-66
2021/01/04 12:39:36;;;;;;;18.05;13.85;;;640.90;614.40;;;;;;5033750;28;20058;-65
2021/01/04 12:42:03;;;;;;;17.30;13.68;;;614.60;716.80;;;;;;5033230;28;20021;-66
2021/01/04 12:44:29;;;;;;;15.77;13.15;;;589.30;742.40;;;;;;5033853;28;20083;-65
2021/01/04 12:46:55;;;;;;;15.93;12.77;;;564.10;768.00;;;;;;5015568;28;20426;-66
2021/01/04 12:49:23;;;;;;;20.05;15.43;;;563.30;844.80;;;;;;5033173;28;20113;-65
2021/01/04 12:51:57;;;;;;;20.88;14.90;;;512.60;921.60;;;;;;5033845;28;20053;-65